Terminal Aerodrome Forecast
Issued by NWS Sioux Falls, SD

Home | Current Version | Previous Version | Graphics & Text | Print | Product List | Glossary On
Versions: 1 2 3 4 5 6 7 8 9 10 11 12 13 14 15
000
FTUS43 KFSD 311120
TAFFSD
TAF
KFSD 311120Z 3112/0112 35005KT P6SM SKC
     FM311400 03010KT P6SM SKC
     FM311900 10010KT P6SM SKC
     FM010000 15010KT P6SM SCT250=

USA.gov is the U.S. government's official web portal to all federal, state and local government web resources and services.